Flight Track Log - Related Links

Times and Time Zones

All times are in EDT time to prevent confusion due to time zone crossing. See the N110HM flight status page for this flight to view local times or setup timezone preferences in your user account.

Time Position Orientation Groundspeed Altitude Reporting Facility
EDT Latitude Longitude Course Direction KTS MPH feet Rate Location/Type
Wed 04:09:15 PM 32.8709 -97.0271 288° West  Level FlightAware Approximate
Wed 04:10:11 PM 32.8778 -97.0519 188° South 140 161 1,900  Level FAA TRACON SMA TRACON (SMA)
Wed 04:10:51 PM 32.8428 -97.0575 195° South 194 223 2,800 2,325 Climbing FAA TRACON SMA TRACON (SMA)
Wed 04:11:31 PM 32.8000 -97.0714 228° Southwest 234 269 5,000 3,150 Climbing FAA TRACON SMA TRACON (SMA)
Wed 04:12:11 PM 32.7703 -97.1106 266° West 274 315 7,000 2,925 Climbing FAA TRACON SMA TRACON (SMA)
Wed 04:12:51 PM 32.7669 -97.1653 276° West 272 313 8,900 2,741 Climbing FAA TRACON SMA TRACON (SMA)
Wed 04:13:32 PM 32.7725 -97.2333 330° Northwest 308 354 10,700 2,889 Climbing FAA TRACON SMA TRACON (SMA)
Wed 04:14:12 PM 32.8203 -97.2667 352° North 301 346 12,800 2,100 Climbing FAA TRACON SMA TRACON (SMA)
Wed 04:14:52 PM 32.8775 -97.2761 360° North 343 395 13,500 1,350 Climbing FAA TRACON SMA TRACON (SMA)
Wed 04:15:32 PM 32.9525 -97.2767 North 394 453 14,600 2,025 Climbing FAA TRACON SMA TRACON (SMA)
Wed 04:16:12 PM 33.0244 -97.2750 North 419 482 16,200 1,575 Climbing FAA TRACON SMA TRACON (SMA)
Wed 04:16:52 PM 33.1058 -97.2700 North 426 490 16,700 1,125 Climbing FAA TRACON SMA TRACON (SMA)
Wed 04:17:32 PM 33.1875 -97.2661 North 425 489 17,700 1,875 Climbing FAA TRACON SMA TRACON (SMA)
Wed 04:18:12 PM 33.2619 -97.2628 North 436 502 19,200 2,354 Climbing FAA TRACON SMA TRACON (SMA)
Wed 04:18:51 PM 33.3472 -97.2592 North 442 509 20,800 2,430 Climbing FAA TRACON SMA TRACON (SMA)
Wed 04:19:31 PM 33.4342 -97.2550 North 452 520 22,400 2,175 Climbing FAA TRACON SMA TRACON (SMA)
Wed 04:20:11 PM 33.5131 -97.2478 North 460 529 23,700 2,222 Climbing FAA TRACON SMA TRACON (SMA)
Wed 04:20:52 PM 33.6019 -97.2389 North 463 533 25,400 2,444 Climbing FAA TRACON SMA TRACON (SMA)
Wed 04:21:32 PM 33.6903 -97.2303 North 460 529 27,000 2,400 Climbing FAA TRACON SMA TRACON (SMA)
Wed 04:22:12 PM 33.7681 -97.2222 354° North 454 522 28,600 2,250 Climbing FAA TRACON SMA TRACON (SMA)
Wed 04:22:52 PM 33.8519 -97.2325 328° Northwest 438 504 30,000 1,902 Climbing FAA TRACON SMA TRACON (SMA)
Wed 04:23:34 PM 33.9250 -97.2883 315° West 416 479 31,200 1,647 Climbing Fort Worth Center
Wed 04:24:34 PM 34.0086 -97.3908 316° Northwest 414 476 32,800 1,450 Climbing Fort Worth Center
Wed 04:25:34 PM 34.0919 -97.4886 313° West 419 482 34,100 1,200 Climbing Fort Worth Center
Wed 04:26:34 PM 34.1628 -97.5792 317° Northwest 419 482 35,200 900 Climbing Fort Worth Center
Wed 04:27:34 PM 34.2481 -97.6747 315° West 414 476 35,900 400 Climbing Fort Worth Center
Wed 04:28:34 PM 34.3333 -97.7781 316° Northwest 414 476 36,000 50 Climbing Fort Worth Center
Wed 04:29:34 PM 34.4186 -97.8792 316° Northwest 414 476 36,000  Level Fort Worth Center
Wed 04:30:34 PM 34.5122 -97.9881 315° West 414 476 36,000  Level Fort Worth Center
Wed 04:31:34 PM 34.5950 -98.0897 315° West 419 482 36,000  Level Fort Worth Center
Wed 04:32:34 PM 34.6819 -98.1939 317° Northwest 424 488 36,000  Level Fort Worth Center
Wed 04:33:34 PM 34.7689 -98.2933 316° Northwest 429 494 36,000  Level Fort Worth Center
Wed 04:34:34 PM 34.8558 -98.3953 316° Northwest 429 494 36,000  Level Fort Worth Center
Wed 04:35:34 PM 34.9322 -98.4847 315° West 429 494 36,000  Level Fort Worth Center
Wed 04:36:34 PM 35.0253 -98.6000 316° Northwest 429 494 36,000  Level Fort Worth Center
Wed 04:37:34 PM 35.1117 -98.7028 315° West 429 494 36,000  Level Fort Worth Center
Wed 04:38:34 PM 35.1981 -98.8083 314° West 429 494 36,000  Level Fort Worth Center
Wed 04:39:34 PM 35.2825 -98.9139 315° West 434 499 36,000  Level Fort Worth Center
Wed 04:40:34 PM 35.3686 -99.0200 315° West 434 499 36,000  Level Fort Worth Center
Wed 04:43:00 PM 35.5769 -99.2764 315° West 426 490 36,000  Level Kansas City Center
Wed 04:44:00 PM 35.6644 -99.3839 315° West 431 496 36,000  Level Kansas City Center
Wed 04:45:00 PM 35.7519 -99.4917 314° West 431 496 36,000  Level Kansas City Center
Wed 04:46:00 PM 35.8369 -99.5994 316° Northwest 436 502 36,000  Level Kansas City Center
Wed 04:47:00 PM 35.9242 -99.7053 314° West 436 502 36,000  Level Kansas City Center
Wed 04:48:00 PM 36.0111 -99.8164 314° West 441 507 36,000  Level Kansas City Center
Wed 04:49:00 PM 36.0958 -99.9250 315° West 447 514 36,000  Level Kansas City Center
Wed 04:50:00 PM 36.1828 -100.0339 314° West 447 514 36,000  Level Kansas City Center
Wed 04:51:00 PM 36.2694 -100.1456 315° West 447 514 36,000  Level Kansas City Center
Wed 04:52:00 PM 36.3442 -100.2386 314° West 447 514 36,000  Level Kansas City Center
Wed 04:53:00 PM 36.4306 -100.3508 315° West 447 514 36,000  Level Kansas City Center
Wed 04:54:00 PM 36.5250 -100.4667 314° West 447 514 36,000  Level Kansas City Center
Wed 04:55:00 PM 36.6111 -100.5794 314° West 442 509 36,000  Level Kansas City Center
Wed 04:56:00 PM 36.6953 -100.6869 314° West 442 509 36,000  Level Kansas City Center
Wed 04:57:00 PM 36.7714 -100.7867 315° West 447 514 36,000  Level Kansas City Center
Wed 04:58:00 PM 36.8672 -100.9086 313° West 447 514 36,000  Level Kansas City Center
Wed 04:59:00 PM 36.9508 -101.0197 314° West 447 514 36,000  Level Kansas City Center
Wed 05:00:00 PM 37.0364 -101.1311 314° West 447 514 36,000  Level Kansas City Center
Wed 05:01:00 PM 37.1144 -101.2314 313° West 447 514 36,000  Level Kansas City Center
Wed 05:02:00 PM 37.1978 -101.3431 314° West 447 514 36,000 50 Level Kansas City Center
Wed 05:03:00 PM 37.2908 -101.4664 313° West 447 514 36,100  Climbing Kansas City Center
Wed 05:05:18 PM 37.4853 -101.7258 313° West 450 518 36,000 -30 Descending Denver Center
Wed 05:06:18 PM 37.5603 -101.8258 314° West 450 518 36,000  Level Denver Center
Wed 05:07:18 PM 37.6461 -101.9381 313° West 450 518 36,000  Level Denver Center
Wed 05:08:18 PM 37.7364 -102.0611 313° West 450 518 36,000  Level Denver Center
Wed 05:09:18 PM 37.8222 -102.1794 314° West 450 518 36,000  Level Denver Center
Wed 05:10:18 PM 37.8967 -102.2775 312° West 445 512 36,000  Level Denver Center
Wed 05:11:18 PM 37.9822 -102.3964 313° West 450 518 36,000  Level Denver Center
Wed 05:12:18 PM 38.0722 -102.5178 313° West 444 511 36,000  Level Denver Center
Wed 05:13:18 PM 38.1572 -102.6319 312° West 444 511 36,000  Level Denver Center
Wed 05:14:18 PM 38.2294 -102.7336 311° West 444 511 36,000  Level Denver Center
Wed 05:15:18 PM 38.3106 -102.8511 311° West 437 503 36,000 -50 Level Denver Center
Wed 05:16:18 PM 38.3981 -102.9817 311° West 442 509 35,900 -750 Descending Denver Center
Wed 05:17:18 PM 38.4764 -103.0972 310° West 442 509 34,500 -1,400 Descending Denver Center
Wed 05:18:18 PM 38.5464 -103.2056 311° West 442 509 33,100 -1,500 Descending Denver Center
Wed 05:19:18 PM 38.6356 -103.3369 308° West 442 509 31,500 -1,500 Descending Denver Center
Wed 05:20:18 PM 38.7053 -103.4508 310° West 452 520 30,100 -1,750 Descending Denver Center
Wed 05:21:18 PM 38.7833 -103.5700 316° Northwest 458 527 28,000 -2,350 Descending Denver Center
Wed 05:22:18 PM 38.8781 -103.6889 320° Northwest 436 502 25,400 -2,700 Descending Denver Center
Wed 05:23:18 PM 38.9681 -103.7867 318° Northwest 423 487 22,600 -2,250 Descending Denver Center
Wed 05:24:18 PM 39.0472 -103.8772 318° Northwest 418 481 20,900 -1,950 Descending Denver Center
Wed 05:25:18 PM 39.1308 -103.9758 320° Northwest 418 481 18,700 -1,900 Descending Denver Center
Wed 05:26:18 PM 39.2142 -104.0667 322° Northwest 411 473 17,100 -850 Descending Denver Center
Wed 05:27:18 PM 39.2886 -104.1419 328° Northwest 365 420 17,000 -550 Descending Denver Center
Wed 05:28:18 PM 39.3628 -104.2011 329° Northwest 324 373 16,000 -1,450 Descending Denver Center
Wed 05:29:18 PM 39.4369 -104.2578 327° Northwest 311 358 14,100 -1,400 Descending Denver Center
Wed 05:30:18 PM 39.5089 -104.3175 329° Northwest 306 352 13,200 -550 Descending Denver Center
Wed 05:31:18 PM 39.5808 -104.3744 327° Northwest 306 352 13,000 -53 Descending Denver Center
Wed 05:32:11 PM 39.6500 -104.4333 335° Northwest 310 357 13,100  Climbing Denver TRACON
Wed 05:33:11 PM 39.7333 -104.4833 322° Northwest 307 353 13,000 -650 Descending Denver TRACON
Wed 05:34:11 PM 39.8000 -104.5500 360° North 312 359 11,800 -800 Descending Denver TRACON
Wed 05:36:11 PM 39.9500 -104.5500 333° Northwest 260 299 10,600 -1,000 Descending Denver TRACON
Wed 05:38:11 PM 40.0500 -104.6167 207° Southwest 222 255 7,800 -1,000 Descending Denver TRACON
Wed 05:40:11 PM 39.9500 -104.6833 207° Southwest 191 220 6,600 -600 Descending Denver TRACON

Login

Don't have an account? Register now (free) for customized features, flight alerts, and more!